Time;durP1;ratioP1;P1;durP2;ratioP2;P2;SDS_P1;SDS_P2;PMS_P1;PMS_P2;Temp;Humidity;BMP_temperature;BMP_pressure;BME280_temperature;BME280_humidity;BME280_pressure;Samples;Min_cycle;Max_cycle;Signal;HPM_P1;HPM_P2
2021/09/18 00:01:26;;;;;;;11.77;3.33;;;;;;;;;;4994927;28;20026;-65
2021/09/18 00:03:52;;;;;;;7.70;3.10;;;;;;;;;;4990900;28;20038;-65
2021/09/18 00:06:17;;;;;;;8.55;3.75;;;;;;;;;;4994901;28;20698;-65
2021/09/18 00:08:45;;;;;;;7.78;2.85;;;;;;;;;;4980703;28;20034;-65
2021/09/18 00:11:13;;;;;;;4.82;3.22;;;;;;;;;;4979936;28;20033;-65
2021/09/18 00:13:40;;;;;;;10.85;3.60;;;;;;;;;;5015445;28;20039;-66
2021/09/18 00:16:08;;;;;;;5.63;3.47;;;;;;;;;;4982341;28;21577;-66
2021/09/18 00:18:33;;;;;;;7.32;3.05;;;;;;;;;;4964882;28;20040;-65
2021/09/18 00:21:02;;;;;;;8.18;2.92;;;;;;;;;;4988304;28;20037;-66
2021/09/18 00:23:30;;;;;;;10.18;2.50;;;;;;;;;;4987505;28;20032;-65
2021/09/18 00:25:58;;;;;;;6.03;2.67;;;;;;;;;;4994744;28;20033;-66
2021/09/18 00:28:31;;;;;;;5.80;2.15;;;;;;;;;;4968714;28;20071;-65
2021/09/18 00:30:57;;;;;;;5.18;2.70;;;;;;;;;;5018961;28;20091;-65
2021/09/18 00:33:22;;;;;;;8.00;2.30;;;;;;;;;;4984320;28;20026;-66
2021/09/18 00:35:48;;;;;;;8.15;3.03;;;;;;;;;;4985016;28;20176;-66
2021/09/18 00:38:18;;;;;;;3.80;2.50;;;;;;;;;;5001863;28;20037;-66
2021/09/18 00:40:48;;;;;;;8.00;2.88;;;;;;;;;;4980636;28;20038;-66
2021/09/18 00:43:16;;;;;;;8.38;3.00;;;;;;;;;;4984650;28;20037;-65
2021/09/18 00:45:43;;;;;;;7.97;2.88;;;;;;;;;;4998393;28;20079;-65
2021/09/18 00:48:09;;;;;;;4.40;2.53;;;;;;;;;;4969560;28;20127;-65
2021/09/18 00:50:34;;;;;;;4.97;2.35;;;;;;;;;;5000650;28;20037;-65
2021/09/18 00:53:00;;;;;;;6.25;2.15;;;;;;;;;;4999485;28;20112;-66
2021/09/18 00:55:26;;;;;;;3.05;1.80;;;;;;;;;;4987722;28;20031;-66
2021/09/18 00:57:53;;;;;;;5.63;2.40;;;;;;;;;;4999268;28;20635;-66
2021/09/18 01:00:24;;;;;;;3.40;2.20;;;;;;;;;;4984609;28;20041;-65
2021/09/18 01:02:52;;;;;;;3.00;2.28;;;;;;;;;;4985255;28;20405;-64
2021/09/18 01:05:19;;;;;;;4.03;2.10;;;;;;;;;;4998636;28;20037;-65
2021/09/18 01:07:47;;;;;;;3.58;2.10;;;;;;;;;;4984787;28;20731;-65
2021/09/18 01:10:17;;;;;;;3.92;1.83;;;;;;;;;;5014650;28;20117;-65
2021/09/18 01:13:01;;;;;;;7.13;2.40;;;;;;;;;;5001131;28;20084;-65
2021/09/18 01:15:27;;;;;;;4.63;2.15;;;;;;;;;;4981398;28;20033;-64
2021/09/18 01:17:53;;;;;;;2.72;1.90;;;;;;;;;;4983184;28;20025;-64
2021/09/18 01:20:18;;;;;;;3.13;1.92;;;;;;;;;;5017834;28;20071;-65
2021/09/18 01:22:47;;;;;;;3.28;2.13;;;;;;;;;;5000430;28;20369;-64
2021/09/18 01:25:13;;;;;;;2.08;1.88;;;;;;;;;;4994014;28;20017;-64
2021/09/18 01:27:38;;;;;;;5.78;2.03;;;;;;;;;;4994461;28;20519;-64
2021/09/18 01:30:11;;;;;;;2.70;1.88;;;;;;;;;;4997078;28;20033;-65
2021/09/18 01:32:37;;;;;;;5.95;2.10;;;;;;;;;;4963187;28;20524;-64
2021/09/18 01:35:08;;;;;;;4.85;2.10;;;;;;;;;;4996525;28;20033;-65
2021/09/18 01:37:39;;;;;;;3.45;1.83;;;;;;;;;;4998818;28;20578;-65
2021/09/18 01:40:08;;;;;;;3.92;1.50;;;;;;;;;;4994547;28;20076;-65
2021/09/18 01:42:34;;;;;;;4.60;1.95;;;;;;;;;;4994753;28;20025;-65
2021/09/18 01:44:59;;;;;;;7.78;2.00;;;;;;;;;;4996039;28;20047;-64
2021/09/18 01:47:40;;;;;;;2.95;1.80;;;;;;;;;;4995897;28;20048;-65
2021/09/18 01:50:17;;;;;;;3.50;1.77;;;;;;;;;;5013620;28;20033;-65
2021/09/18 01:52:47;;;;;;;1.65;1.35;;;;;;;;;;4993976;28;20029;-64
2021/09/18 01:55:20;;;;;;;2.85;1.60;;;;;;;;;;4996948;28;20034;-65
2021/09/18 01:57:47;;;;;;;2.40;1.50;;;;;;;;;;5000856;28;20116;-65
2021/09/18 02:00:13;;;;;;;4.30;1.63;;;;;;;;;;4993787;28;20023;-64
2021/09/18 02:02:46;;;;;;;3.10;1.45;;;;;;;;;;4997887;28;20788;-66
2021/09/18 02:05:12;;;;;;;5.57;1.60;;;;;;;;;;4999378;28;20041;-65
2021/09/18 02:07:41;;;;;;;4.38;1.27;;;;;;;;;;4977883;28;20025;-65
2021/09/18 02:10:11;;;;;;;1.92;1.08;;;;;;;;;;4981643;28;20029;-65
2021/09/18 02:12:41;;;;;;;8.70;1.20;;;;;;;;;;4976592;28;20034;-66
2021/09/18 02:15:08;;;;;;;4.72;1.02;;;;;;;;;;4994322;28;20057;-66
2021/09/18 02:17:33;;;;;;;10.57;1.70;;;;;;;;;;4992451;28;20086;-66
2021/09/18 02:20:04;;;;;;;4.85;1.52;;;;;;;;;;4963095;28;20816;-65
2021/09/18 02:22:32;;;;;;;1.17;1.00;;;;;;;;;;4972224;28;20061;-65
2021/09/18 02:24:57;;;;;;;6.35;1.50;;;;;;;;;;4979020;28;20125;-65
2021/09/18 02:27:23;;;;;;;2.28;1.00;;;;;;;;;;4987685;28;20052;-65
2021/09/18 02:29:48;;;;;;;2.45;1.30;;;;;;;;;;4960892;28;20044;-66
2021/09/18 02:32:14;;;;;;;3.28;1.52;;;;;;;;;;4996025;28;20037;-66
2021/09/18 02:34:39;;;;;;;3.22;1.67;;;;;;;;;;4962845;28;20030;-66
2021/09/18 02:37:05;;;;;;;3.47;1.38;;;;;;;;;;4994944;28;20056;-66
2021/09/18 02:39:33;;;;;;;7.13;1.80;;;;;;;;;;4977652;28;20477;-66
2021/09/18 02:41:58;;;;;;;7.25;1.75;;;;;;;;;;4997455;28;20049;-66
2021/09/18 02:44:23;;;;;;;3.03;1.88;;;;;;;;;;4993042;28;20036;-66
2021/09/18 02:46:54;;;;;;;3.35;2.05;;;;;;;;;;4959372;28;20025;-67
2021/09/18 02:49:19;;;;;;;3.55;1.80;;;;;;;;;;4976570;28;20128;-65
2021/09/18 02:51:47;;;;;;;4.95;2.20;;;;;;;;;;4964653;28;20033;-65
2021/09/18 02:54:15;;;;;;;4.95;1.70;;;;;;;;;;4978308;28;20041;-65
2021/09/18 02:56:43;;;;;;;6.93;2.13;;;;;;;;;;4991381;28;20033;-65
2021/09/18 02:59:13;;;;;;;3.47;1.60;;;;;;;;;;4995491;28;20096;-65
2021/09/18 03:01:39;;;;;;;4.18;1.77;;;;;;;;;;4989740;28;20071;-65
2021/09/18 03:04:09;;;;;;;6.57;1.52;;;;;;;;;;4979644;28;20132;-66
2021/09/18 03:06:34;;;;;;;6.57;2.15;;;;;;;;;;4997385;28;20160;-66
2021/09/18 03:09:00;;;;;;;6.63;1.98;;;;;;;;;;4994062;28;20029;-66
2021/09/18 03:11:25;;;;;;;2.53;1.73;;;;;;;;;;4962218;28;20034;-66
2021/09/18 03:13:50;;;;;;;2.67;1.45;;;;;;;;;;4978118;28;20465;-66
2021/09/18 03:16:19;;;;;;;2.78;1.70;;;;;;;;;;4976468;28;20072;-66
2021/09/18 03:18:44;;;;;;;7.10;1.67;;;;;;;;;;4968827;28;20026;-66
2021/09/18 03:21:12;;;;;;;3.33;1.63;;;;;;;;;;4996638;28;20033;-65
2021/09/18 03:23:40;;;;;;;2.00;1.38;;;;;;;;;;4995035;28;20167;-65
2021/09/18 03:26:05;;;;;;;4.75;1.63;;;;;;;;;;4979802;28;20038;-65
2021/09/18 03:28:31;;;;;;;2.13;1.73;;;;;;;;;;4992359;28;20083;-66
2021/09/18 03:30:56;;;;;;;1.70;1.08;;;;;;;;;;4996674;28;20042;-66
2021/09/18 03:33:24;;;;;;;7.13;1.55;;;;;;;;;;4981341;28;20037;-65
2021/09/18 03:35:51;;;;;;;1.98;1.23;;;;;;;;;;4977948;28;20060;-65
2021/09/18 03:38:19;;;;;;;7.43;1.50;;;;;;;;;;4973012;28;20029;-65
2021/09/18 03:40:47;;;;;;;1.90;1.50;;;;;;;;;;4996630;28;20436;-66
2021/09/18 03:43:12;;;;;;;1.92;1.38;;;;;;;;;;4992052;28;20036;-65
2021/09/18 03:45:40;;;;;;;2.88;1.15;;;;;;;;;;4978181;28;20092;-66
2021/09/18 03:48:08;;;;;;;3.35;1.40;;;;;;;;;;4992398;28;20038;-65
2021/09/18 03:50:33;;;;;;;3.45;1.23;;;;;;;;;;4971956;28;20119;-65
2021/09/18 03:53:01;;;;;;;3.80;1.52;;;;;;;;;;4995279;28;20033;-65
2021/09/18 03:55:29;;;;;;;3.30;1.20;;;;;;;;;;4991306;28;20080;-64
2021/09/18 03:57:54;;;;;;;1.73;1.10;;;;;;;;;;4977630;28;20034;-65
2021/09/18 04:00:22;;;;;;;4.00;1.20;;;;;;;;;;4976336;28;20036;-66
2021/09/18 04:02:53;;;;;;;5.05;1.63;;;;;;;;;;4980253;28;20076;-65
2021/09/18 04:05:23;;;;;;;1.70;1.40;;;;;;;;;;4995947;28;20140;-66
2021/09/18 04:07:51;;;;;;;3.22;1.83;;;;;;;;;;4996318;28;20031;-66
2021/09/18 04:10:19;;;;;;;6.57;1.27;;;;;;;;;;4974983;28;20021;-65
2021/09/18 04:12:46;;;;;;;1.70;1.30;;;;;;;;;;4994279;28;20044;-66
2021/09/18 04:15:12;;;;;;;2.08;1.10;;;;;;;;;;4978616;28;20033;-66
2021/09/18 04:17:37;;;;;;;5.45;1.45;;;;;;;;;;4961719;28;20034;-66
2021/09/18 04:20:10;;;;;;;1.45;1.15;;;;;;;;;;4960183;28;20504;-65
2021/09/18 04:22:37;;;;;;;1.27;1.17;;;;;;;;;;4975650;28;20060;-65
2021/09/18 04:25:03;;;;;;;2.17;1.17;;;;;;;;;;4995926;28;20029;-64
2021/09/18 04:27:31;;;;;;;2.88;1.42;;;;;;;;;;5001841;28;20037;-66
2021/09/18 04:29:56;;;;;;;3.05;1.33;;;;;;;;;;4994611;28;20099;-65
2021/09/18 04:32:24;;;;;;;4.07;1.40;;;;;;;;;;5010704;28;20914;-65
2021/09/18 04:34:52;;;;;;;3.42;1.52;;;;;;;;;;4994811;28;20029;-65
2021/09/18 04:37:17;;;;;;;1.65;1.13;;;;;;;;;;4973711;28;20115;-66
2021/09/18 04:39:43;;;;;;;1.38;1.20;;;;;;;;;;4995317;28;20041;-66
2021/09/18 04:42:10;;;;;;;2.90;1.38;;;;;;;;;;4979500;28;20171;-65
2021/09/18 04:44:38;;;;;;;1.40;0.90;;;;;;;;;;4995345;28;20504;-65
2021/09/18 04:47:04;;;;;;;6.63;1.80;;;;;;;;;;4996629;28;20034;-65
2021/09/18 04:49:29;;;;;;;2.42;1.80;;;;;;;;;;4993835;28;20032;-66
2021/09/18 04:51:57;;;;;;;4.10;2.22;;;;;;;;;;4994244;28;20041;-66
2021/09/18 04:57:58;;;;;;;3.17;1.65;;;;;;;;;;4992341;28;20032;-66
2021/09/18 05:00:26;;;;;;;4.63;2.03;;;;;;;;;;4997219;28;20045;-64
2021/09/18 05:02:54;;;;;;;1.98;1.77;;;;;;;;;;4999348;28;20025;-66
2021/09/18 05:05:22;;;;;;;2.83;2.00;;;;;;;;;;5017049;28;20566;-66
2021/09/18 05:07:47;;;;;;;2.15;1.75;;;;;;;;;;5009062;28;20061;-66
2021/09/18 05:10:12;;;;;;;10.77;2.45;;;;;;;;;;4979818;28;20033;-66
2021/09/18 05:12:40;;;;;;;6.95;1.95;;;;;;;;;;4998778;28;20533;-66
2021/09/18 05:15:10;;;;;;;3.53;1.98;;;;;;;;;;4975994;28;20033;-65
2021/09/18 05:17:41;;;;;;;7.35;2.10;;;;;;;;;;4998722;28;20029;-66
2021/09/18 05:20:07;;;;;;;4.35;2.13;;;;;;;;;;4996023;28;20061;-66
2021/09/18 05:22:32;;;;;;;3.22;1.85;;;;;;;;;;4974619;28;20568;-66
2021/09/18 05:24:58;;;;;;;3.15;1.85;;;;;;;;;;4996612;28;20049;-66
2021/09/18 05:27:24;;;;;;;3.00;1.77;;;;;;;;;;4995485;28;20037;-66
2021/09/18 05:29:52;;;;;;;2.15;1.52;;;;;;;;;;4992707;28;20370;-66
2021/09/18 05:32:20;;;;;;;6.43;1.73;;;;;;;;;;4998280;28;20036;-66
2021/09/18 05:34:45;;;;;;;4.60;2.08;;;;;;;;;;4977116;28;20034;-66
2021/09/18 05:37:13;;;;;;;3.05;1.77;;;;;;;;;;4965088;28;20060;-66
2021/09/18 05:39:38;;;;;;;4.10;2.00;;;;;;;;;;4961551;28;20091;-66
2021/09/18 05:42:04;;;;;;;4.68;1.67;;;;;;;;;;4982285;28;20978;-66
2021/09/18 05:44:29;;;;;;;3.88;1.33;;;;;;;;;;5000159;28;20044;-66
2021/09/18 05:46:55;;;;;;;3.47;1.90;;;;;;;;;;4976885;28;20037;-66
2021/09/18 05:49:23;;;;;;;4.60;1.48;;;;;;;;;;4994820;28;20088;-66
2021/09/18 05:51:51;;;;;;;2.13;1.27;;;;;;;;;;5008141;28;20052;-64
2021/09/18 05:54:16;;;;;;;2.40;1.63;;;;;;;;;;4989789;28;20655;-64
2021/09/18 05:56:44;;;;;;;3.17;1.73;;;;;;;;;;5001511;28;20022;-64
2021/09/18 05:59:09;;;;;;;7.32;1.40;;;;;;;;;;4994605;28;20607;-65
2021/09/18 06:01:37;;;;;;;2.33;1.60;;;;;;;;;;5012128;28;20038;-65
2021/09/18 06:04:02;;;;;;;2.20;1.40;;;;;;;;;;4994404;28;20061;-65
2021/09/18 06:06:30;;;;;;;4.05;1.23;;;;;;;;;;4994403;28;20034;-65
2021/09/18 06:08:58;;;;;;;3.72;1.13;;;;;;;;;;4977169;28;20041;-65
2021/09/18 06:11:24;;;;;;;2.13;0.75;;;;;;;;;;4958184;28;20080;-65
2021/09/18 06:13:49;;;;;;;5.63;0.80;;;;;;;;;;4962142;28;20729;-65
2021/09/18 06:16:17;;;;;;;4.05;0.95;;;;;;;;;;4979739;28;20033;-65
2021/09/18 06:18:45;;;;;;;3.20;0.93;;;;;;;;;;4993013;28;20041;-66
2021/09/18 06:21:13;;;;;;;4.00;0.70;;;;;;;;;;4973346;28;20397;-65
2021/09/18 06:23:40;;;;;;;3.15;0.85;;;;;;;;;;4977730;28;20658;-65
2021/09/18 06:26:05;;;;;;;1.33;0.70;;;;;;;;;;4983031;28;20025;-65
2021/09/18 06:28:34;;;;;;;1.75;0.90;;;;;;;;;;4996967;28;20041;-68
2021/09/18 06:31:00;;;;;;;2.50;0.70;;;;;;;;;;4980199;28;20128;-65
2021/09/18 06:33:28;;;;;;;1.27;0.80;;;;;;;;;;4995480;28;20550;-66
2021/09/18 06:35:58;;;;;;;4.40;1.45;;;;;;;;;;4979952;28;22019;-66
2021/09/18 06:38:26;;;;;;;0.90;0.85;;;;;;;;;;4997550;28;20038;-66
2021/09/18 06:40:56;;;;;;;1.02;0.75;;;;;;;;;;4995577;28;20029;-65
2021/09/18 06:43:22;;;;;;;1.17;0.65;;;;;;;;;;4979542;28;20025;-65
2021/09/18 06:45:49;;;;;;;2.70;0.68;;;;;;;;;;4978348;28;20116;-65
2021/09/18 06:48:15;;;;;;;3.50;1.50;;;;;;;;;;4996530;28;20119;-64
2021/09/18 06:50:40;;;;;;;2.28;0.93;;;;;;;;;;4989707;28;20052;-65
2021/09/18 06:53:06;;;;;;;3.35;0.77;;;;;;;;;;4995306;28;20496;-66
2021/09/18 06:55:33;;;;;;;1.00;0.70;;;;;;;;;;4999955;28;20144;-67
2021/09/18 06:58:00;;;;;;;1.95;0.75;;;;;;;;;;4997125;28;20021;-67
2021/09/18 07:00:26;;;;;;;1.55;0.63;;;;;;;;;;4981342;28;20029;-66
2021/09/18 07:02:54;;;;;;;1.10;0.57;;;;;;;;;;4979197;28;20144;-66
2021/09/18 07:05:20;;;;;;;2.20;0.80;;;;;;;;;;4999317;28;20149;-66
2021/09/18 07:07:46;;;;;;;1.27;0.75;;;;;;;;;;4998635;28;20131;-66
2021/09/18 07:10:12;;;;;;;2.00;0.40;;;;;;;;;;4978615;28;20126;-66
2021/09/18 07:12:40;;;;;;;0.52;0.30;;;;;;;;;;4981045;28;20030;-65
2021/09/18 07:15:07;;;;;;;1.00;0.90;;;;;;;;;;4994524;28;20115;-66
2021/09/18 07:17:35;;;;;;;1.67;0.30;;;;;;;;;;4994017;28;20022;-66
2021/09/18 07:20:01;;;;;;;0.80;0.38;;;;;;;;;;4994732;28;20065;-67
2021/09/18 07:22:27;;;;;;;4.50;0.30;;;;;;;;;;4970301;28;20068;-67
2021/09/18 07:24:58;;;;;;;1.60;0.40;;;;;;;;;;4994878;28;20029;-67
2021/09/18 07:27:23;;;;;;;2.63;0.68;;;;;;;;;;4991907;28;20119;-66
2021/09/18 07:29:52;;;;;;;2.80;0.40;;;;;;;;;;4954062;28;20720;-67
2021/09/18 07:32:20;;;;;;;1.30;0.47;;;;;;;;;;4993499;28;20033;-66
2021/09/18 07:34:47;;;;;;;2.70;0.93;;;;;;;;;;4991302;28;20053;-66
2021/09/18 07:37:16;;;;;;;3.58;0.40;;;;;;;;;;4996797;28;20128;-67
2021/09/18 07:39:42;;;;;;;2.65;0.73;;;;;;;;;;4979575;28;20036;-67
2021/09/18 07:42:12;;;;;;;3.53;0.65;;;;;;;;;;4980227;28;20044;-67
2021/09/18 07:44:42;;;;;;;2.08;0.35;;;;;;;;;;4974189;28;20034;-67
2021/09/18 07:47:13;;;;;;;1.10;0.30;;;;;;;;;;4993498;28;20036;-67
2021/09/18 07:49:38;;;;;;;0.80;0.57;;;;;;;;;;4994027;28;20038;-67
2021/09/18 07:52:14;;;;;;;1.23;0.40;;;;;;;;;;4988844;28;20152;-67
2021/09/18 07:54:39;;;;;;;2.08;0.70;;;;;;;;;;4959050;28;20034;-65
2021/09/18 07:57:04;;;;;;;4.13;0.40;;;;;;;;;;4979288;28;20037;-66
2021/09/18 07:59:30;;;;;;;3.70;0.55;;;;;;;;;;4978994;28;20053;-66
2021/09/18 08:01:57;;;;;;;2.67;0.77;;;;;;;;;;4989918;28;20026;-68
2021/09/18 08:04:23;;;;;;;1.00;0.40;;;;;;;;;;4994409;28;20043;-66
2021/09/18 08:06:50;;;;;;;2.55;0.43;;;;;;;;;;4980818;28;20088;-66
2021/09/18 08:09:16;;;;;;;1.40;0.45;;;;;;;;;;4994953;28;20519;-68
2021/09/18 08:11:43;;;;;;;4.57;0.38;;;;;;;;;;4997246;28;20021;-68
2021/09/18 08:14:09;;;;;;;3.50;0.65;;;;;;;;;;4972794;28;22099;-67
2021/09/18 08:16:39;;;;;;;1.85;0.57;;;;;;;;;;4994940;28;20034;-67
2021/09/18 08:19:07;;;;;;;1.48;0.40;;;;;;;;;;4994973;28;20500;-67
2021/09/18 08:21:36;;;;;;;1.42;0.45;;;;;;;;;;4958542;28;20037;-67
2021/09/18 08:24:01;;;;;;;2.25;0.50;;;;;;;;;;4991982;28;20033;-67
2021/09/18 08:26:30;;;;;;;3.33;0.57;;;;;;;;;;4994056;28;20120;-66
2021/09/18 08:28:56;;;;;;;2.60;1.63;;;;;;;;;;4977080;28;20046;-66
2021/09/18 08:31:21;;;;;;;2.65;0.55;;;;;;;;;;4990688;28;20037;-66
2021/09/18 08:33:49;;;;;;;2.67;0.63;;;;;;;;;;4996855;28;20034;-66
2021/09/18 08:36:15;;;;;;;0.88;0.60;;;;;;;;;;4999134;28;20049;-67
2021/09/18 08:38:40;;;;;;;3.15;0.63;;;;;;;;;;4995513;28;20620;-66
2021/09/18 08:41:07;;;;;;;4.68;0.60;;;;;;;;;;4999674;28;20892;-66
2021/09/18 08:43:33;;;;;;;7.43;0.85;;;;;;;;;;5000181;28;20039;-66
2021/09/18 08:45:59;;;;;;;3.83;0.52;;;;;;;;;;4995283;28;20033;-66
2021/09/18 08:48:32;;;;;;;3.80;0.88;;;;;;;;;;4980953;28;20034;-67
2021/09/18 08:51:00;;;;;;;3.97;0.88;;;;;;;;;;4982197;28;20909;-68
2021/09/18 08:53:28;;;;;;;3.78;0.60;;;;;;;;;;4993851;28;20040;-67
2021/09/18 08:55:54;;;;;;;2.30;0.52;;;;;;;;;;4997814;28;20025;-67
2021/09/18 08:58:23;;;;;;;0.55;0.40;;;;;;;;;;4987381;28;20480;-67
2021/09/18 09:00:55;;;;;;;1.13;0.50;;;;;;;;;;4994396;28;20048;-66
2021/09/18 09:03:31;;;;;;;2.58;0.50;;;;;;;;;;4996172;28;20107;-66
2021/09/18 09:05:58;;;;;;;1.08;0.22;;;;;;;;;;4992060;28;20038;-67
2021/09/18 09:08:24;;;;;;;4.00;0.70;;;;;;;;;;4997896;28;20107;-67
2021/09/18 09:10:50;;;;;;;1.92;0.65;;;;;;;;;;4979375;28;20038;-65
2021/09/18 09:13:19;;;;;;;7.78;0.63;;;;;;;;;;4997023;28;20033;-67
2021/09/18 09:15:47;;;;;;;1.88;0.30;;;;;;;;;;4991220;28;20038;-67
2021/09/18 09:18:17;;;;;;;2.85;0.52;;;;;;;;;;4976708;28;20062;-67
2021/09/18 09:20:43;;;;;;;1.33;0.32;;;;;;;;;;4993902;28;20599;-67
2021/09/18 09:23:19;;;;;;;2.92;0.88;;;;;;;;;;4996665;28;20041;-66
2021/09/18 09:25:54;;;;;;;1.80;0.47;;;;;;;;;;4995753;28;20033;-66
2021/09/18 09:28:23;;;;;;;1.15;0.30;;;;;;;;;;4992486;28;20033;-67
2021/09/18 09:30:51;;;;;;;3.20;0.60;;;;;;;;;;4995622;28;20160;-67
2021/09/18 09:33:22;;;;;;;3.22;0.60;;;;;;;;;;4996711;28;20030;-67
2021/09/18 09:35:48;;;;;;;3.90;0.40;;;;;;;;;;4995338;28;20047;-67
2021/09/18 09:38:13;;;;;;;1.55;0.73;;;;;;;;;;5010404;28;20041;-67
2021/09/18 09:40:39;;;;;;;1.00;0.47;;;;;;;;;;4992847;28;20045;-67
2021/09/18 09:43:05;;;;;;;1.27;0.60;;;;;;;;;;4989777;28;20030;-67
2021/09/18 09:45:31;;;;;;;1.33;0.32;;;;;;;;;;4995004;28;20530;-66
2021/09/18 09:48:19;;;;;;;1.27;0.40;;;;;;;;;;4980644;28;20108;-67
2021/09/18 09:50:57;;;;;;;2.55;0.50;;;;;;;;;;4998485;28;20766;-67
2021/09/18 09:53:30;;;;;;;2.50;0.60;;;;;;;;;;4994074;28;20726;-67
2021/09/18 09:55:57;;;;;;;1.30;0.53;;;;;;;;;;4989237;28;20117;-67
2021/09/18 09:58:25;;;;;;;1.92;0.65;;;;;;;;;;4979436;28;20022;-66
2021/09/18 10:00:52;;;;;;;2.97;0.93;;;;;;;;;;4994330;28;20119;-66
2021/09/18 10:03:21;;;;;;;1.48;0.40;;;;;;;;;;4996222;28;20034;-65
2021/09/18 10:05:47;;;;;;;4.13;0.40;;;;;;;;;;4971826;28;20044;-65
2021/09/18 10:08:15;;;;;;;2.13;0.60;;;;;;;;;;4975068;28;20029;-66
2021/09/18 10:10:40;;;;;;;1.92;0.52;;;;;;;;;;5006397;28;22049;-66
2021/09/18 10:13:06;;;;;;;1.08;0.57;;;;;;;;;;4996078;28;20033;-66
2021/09/18 10:15:35;;;;;;;3.15;0.73;;;;;;;;;;4993761;28;20049;-66
2021/09/18 10:18:03;;;;;;;3.33;0.70;;;;;;;;;;4994624;28;20018;-66
2021/09/18 10:23:18;;;;;;;2.88;0.55;;;;;;;;;;4993416;28;20791;-66
2021/09/18 10:25:56;;;;;;;0.80;0.40;;;;;;;;;;4996529;28;20024;-65
2021/09/18 10:28:27;;;;;;;2.88;0.70;;;;;;;;;;4979731;28;20481;-66
2021/09/18 10:31:11;;;;;;;2.55;0.98;;;;;;;;;;4994702;28;20060;-66
2021/09/18 10:33:37;;;;;;;2.28;1.05;;;;;;;;;;4993195;28;22018;-66
2021/09/18 10:36:03;;;;;;;4.22;1.35;;;;;;;;;;4995903;28;20027;-65
2021/09/18 10:38:29;;;;;;;1.67;0.80;;;;;;;;;;4995371;28;20042;-65
2021/09/18 10:41:00;;;;;;;2.17;0.70;;;;;;;;;;4994978;28;20021;-65
2021/09/18 10:43:29;;;;;;;3.53;0.73;;;;;;;;;;4975774;28;20049;-65
2021/09/18 10:46:00;;;;;;;1.63;0.82;;;;;;;;;;5008402;28;20029;-66
2021/09/18 10:48:33;;;;;;;0.93;0.40;;;;;;;;;;4980309;28;20053;-66
2021/09/18 10:50:59;;;;;;;2.03;0.75;;;;;;;;;;4996815;28;20037;-66
2021/09/18 10:53:25;;;;;;;2.20;0.70;;;;;;;;;;4994513;28;20634;-66
2021/09/18 10:55:53;;;;;;;2.00;0.82;;;;;;;;;;4974878;28;20069;-66
2021/09/18 10:58:18;;;;;;;1.08;0.98;;;;;;;;;;4993622;28;20028;-66
2021/09/18 11:00:53;;;;;;;2.13;1.20;;;;;;;;;;5010866;28;20046;-66
2021/09/18 11:03:42;;;;;;;1.00;0.70;;;;;;;;;;5010563;28;21915;-66
2021/09/18 11:06:29;;;;;;;3.10;0.85;;;;;;;;;;4995536;28;20065;-66
2021/09/18 11:08:55;;;;;;;2.78;0.90;;;;;;;;;;5005188;28;20035;-66
2021/09/18 11:11:25;;;;;;;0.75;0.40;;;;;;;;;;4997720;28;21899;-66
2021/09/18 11:13:52;;;;;;;1.30;0.50;;;;;;;;;;4996929;28;20033;-66
2021/09/18 11:16:28;;;;;;;0.40;0.35;;;;;;;;;;4978333;28;20075;-66
2021/09/18 11:19:00;;;;;;;1.63;0.38;;;;;;;;;;4989776;28;20112;-66
2021/09/18 11:21:29;;;;;;;2.85;0.95;;;;;;;;;;4986040;28;20183;-66
2021/09/18 11:24:02;;;;;;;1.83;1.02;;;;;;;;;;4995663;28;20576;-66
2021/09/18 11:26:30;;;;;;;0.98;0.60;;;;;;;;;;4999421;28;20961;-66
2021/09/18 11:28:55;;;;;;;2.33;0.47;;;;;;;;;;4986005;28;20123;-66
2021/09/18 11:31:25;;;;;;;1.42;0.50;;;;;;;;;;4979442;28;20038;-67
2021/09/18 11:33:51;;;;;;;0.50;0.50;;;;;;;;;;4979718;28;20072;-65
2021/09/18 11:36:19;;;;;;;2.63;0.70;;;;;;;;;;4994510;28;20120;-66
2021/09/18 11:38:47;;;;;;;1.77;0.80;;;;;;;;;;4996543;28;20296;-66
2021/09/18 11:41:15;;;;;;;0.80;0.40;;;;;;;;;;5011526;28;20036;-66
2021/09/18 11:43:43;;;;;;;1.88;0.60;;;;;;;;;;4991953;28;20034;-66
2021/09/18 11:46:10;;;;;;;2.00;0.50;;;;;;;;;;4974213;28;20042;-65
2021/09/18 11:48:35;;;;;;;0.63;0.30;;;;;;;;;;5011933;28;20033;-65
2021/09/18 11:51:08;;;;;;;1.08;0.35;;;;;;;;;;4996459;28;20033;-66
2021/09/18 11:53:36;;;;;;;0.40;0.32;;;;;;;;;;4974022;28;20030;-66
2021/09/18 11:56:04;;;;;;;1.05;0.40;;;;;;;;;;4992470;28;20121;-66
2021/09/18 11:58:32;;;;;;;1.15;0.40;;;;;;;;;;4990273;28;20064;-66
2021/09/18 12:01:02;;;;;;;0.57;0.40;;;;;;;;;;4976242;28;20902;-66
2021/09/18 12:03:33;;;;;;;0.68;0.50;;;;;;;;;;4969876;28;20166;-66
2021/09/18 12:06:02;;;;;;;0.82;0.60;;;;;;;;;;4994600;28;20037;-66
2021/09/18 12:08:30;;;;;;;1.13;0.80;;;;;;;;;;4994189;28;20158;-65
2021/09/18 12:11:03;;;;;;;1.85;0.55;;;;;;;;;;4977608;28;20128;-65
2021/09/18 12:13:31;;;;;;;1.95;0.40;;;;;;;;;;4990780;28;20025;-65
2021/09/18 12:16:03;;;;;;;3.10;0.68;;;;;;;;;;4957669;28;22059;-65
2021/09/18 12:18:32;;;;;;;1.35;0.65;;;;;;;;;;4992597;28;20176;-65
2021/09/18 12:21:01;;;;;;;1.75;0.50;;;;;;;;;;4978942;28;20038;-66
2021/09/18 12:23:33;;;;;;;2.50;0.60;;;;;;;;;;5002169;28;20038;-66
2021/09/18 12:26:00;;;;;;;1.02;0.80;;;;;;;;;;4974798;28;20041;-65
2021/09/18 12:28:29;;;;;;;0.85;0.82;;;;;;;;;;5000628;28;20034;-65
2021/09/18 12:30:58;;;;;;;1.15;0.70;;;;;;;;;;5001493;28;20153;-65
2021/09/18 12:33:33;;;;;;;1.60;0.70;;;;;;;;;;4993196;28;20034;-65
2021/09/18 12:36:06;;;;;;;0.70;0.63;;;;;;;;;;4994879;28;20033;-63
2021/09/18 12:38:35;;;;;;;0.70;0.60;;;;;;;;;;4995548;28;20514;-65
2021/09/18 12:41:04;;;;;;;3.00;0.70;;;;;;;;;;4995333;28;20950;-65
2021/09/18 12:43:30;;;;;;;0.60;0.60;;;;;;;;;;4972315;28;21036;-64
2021/09/18 12:46:03;;;;;;;0.57;0.38;;;;;;;;;;4991709;28;20132;-65
2021/09/18 12:48:34;;;;;;;0.80;0.70;;;;;;;;;;4994389;28;20030;-64
2021/09/18 12:50:59;;;;;;;0.82;0.70;;;;;;;;;;4982555;28;20165;-63
2021/09/18 12:53:24;;;;;;;0.90;0.70;;;;;;;;;;4994218;28;20143;-64
2021/09/18 12:56:05;;;;;;;0.98;0.73;;;;;;;;;;4973187;28;20044;-63
2021/09/18 12:58:34;;;;;;;1.80;0.57;;;;;;;;;;4991044;28;20037;-64
2021/09/18 13:01:03;;;;;;;1.17;0.82;;;;;;;;;;4986749;28;20045;-65
2021/09/18 13:03:32;;;;;;;1.15;0.70;;;;;;;;;;4991591;28;20029;-64
2021/09/18 13:06:01;;;;;;;1.15;0.70;;;;;;;;;;4962350;28;20030;-64
2021/09/18 13:08:39;;;;;;;1.40;0.63;;;;;;;;;;4993177;28;20084;-62
2021/09/18 13:11:15;;;;;;;0.75;0.52;;;;;;;;;;4991126;28;20038;-65
2021/09/18 13:13:43;;;;;;;2.05;0.70;;;;;;;;;;4990747;28;20034;-64
2021/09/18 13:16:09;;;;;;;2.40;0.90;;;;;;;;;;4993004;28;20055;-65
2021/09/18 13:18:37;;;;;;;0.80;0.80;;;;;;;;;;4993359;28;20751;-65
2021/09/18 13:21:02;;;;;;;0.50;0.40;;;;;;;;;;4982272;28;20500;-64
2021/09/18 13:23:28;;;;;;;0.57;0.52;;;;;;;;;;4990290;28;20032;-62
2021/09/18 13:25:58;;;;;;;0.47;0.47;;;;;;;;;;4983378;28;20033;-63
2021/09/18 13:28:28;;;;;;;4.72;0.40;;;;;;;;;;4958847;28;20022;-63
2021/09/18 13:30:56;;;;;;;0.43;0.43;;;;;;;;;;4996896;28;20042;-63
2021/09/18 13:33:26;;;;;;;0.60;0.50;;;;;;;;;;4994680;28;20038;-63
2021/09/18 13:35:51;;;;;;;1.13;0.40;;;;;;;;;;4989783;28;20108;-63
2021/09/18 13:38:17;;;;;;;1.95;0.60;;;;;;;;;;4997598;28;20037;-64
2021/09/18 13:40:42;;;;;;;0.82;0.40;;;;;;;;;;4998750;28;20769;-65
2021/09/18 13:43:08;;;;;;;4.70;0.70;;;;;;;;;;4981865;28;20029;-63
2021/09/18 13:45:39;;;;;;;0.32;0.32;;;;;;;;;;4982970;28;20029;-63
2021/09/18 13:48:07;;;;;;;0.52;0.30;;;;;;;;;;5007676;28;20033;-64
2021/09/18 13:50:32;;;;;;;0.80;0.40;;;;;;;;;;4999105;28;20034;-63
2021/09/18 13:53:03;;;;;;;0.77;0.43;;;;;;;;;;4975260;28;20038;-62
2021/09/18 13:55:28;;;;;;;1.52;0.25;;;;;;;;;;4999897;28;20033;-61
2021/09/18 13:57:56;;;;;;;0.65;0.30;;;;;;;;;;4995878;28;20080;-61
2021/09/18 14:00:26;;;;;;;1.73;0.40;;;;;;;;;;4974705;28;20528;-61
2021/09/18 14:02:54;;;;;;;0.52;0.30;;;;;;;;;;4998066;28;20033;-61
2021/09/18 14:05:21;;;;;;;5.28;0.47;;;;;;;;;;5001283;28;20022;-61
2021/09/18 14:07:47;;;;;;;0.50;0.50;;;;;;;;;;5006749;28;20087;-62
2021/09/18 14:10:13;;;;;;;0.43;0.40;;;;;;;;;;4996469;28;20038;-60
2021/09/18 14:12:38;;;;;;;1.10;0.40;;;;;;;;;;5001623;28;20703;-61
2021/09/18 14:15:06;;;;;;;0.40;0.40;;;;;;;;;;4965905;28;20025;-62
2021/09/18 14:17:37;;;;;;;0.52;0.30;;;;;;;;;;4999331;28;20022;-61
2021/09/18 14:20:03;;;;;;;0.50;0.40;;;;;;;;;;4984135;28;20350;-60
2021/09/18 14:22:28;;;;;;;1.10;1.00;;;;;;;;;;4998940;28;20041;-62
2021/09/18 14:24:54;;;;;;;2.78;1.00;;;;;;;;;;4979102;28;20059;-61
2021/09/18 14:27:19;;;;;;;2.03;0.70;;;;;;;;;;4966307;28;20060;-61
2021/09/18 14:29:47;;;;;;;1.80;1.20;;;;;;;;;;4997457;28;20033;-62
2021/09/18 14:32:14;;;;;;;1.13;0.93;;;;;;;;;;5006581;28;20504;-60
2021/09/18 14:34:42;;;;;;;1.02;0.52;;;;;;;;;;4998082;28;20662;-60
2021/09/18 14:37:13;;;;;;;0.93;0.77;;;;;;;;;;4999199;28;20132;-61
2021/09/18 14:39:41;;;;;;;0.50;0.50;;;;;;;;;;5002344;28;20044;-61
2021/09/18 14:42:09;;;;;;;0.43;0.40;;;;;;;;;;4981958;28;20562;-61
2021/09/18 14:44:34;;;;;;;0.57;0.50;;;;;;;;;;4997874;28;20021;-61
2021/09/18 14:47:02;;;;;;;2.95;2.40;;;;;;;;;;4981630;28;20679;-62
2021/09/18 14:49:28;;;;;;;5.50;3.00;;;;;;;;;;4997927;28;20049;-61
2021/09/18 14:51:55;;;;;;;3.33;2.33;;;;;;;;;;4995190;28;20033;-61
2021/09/18 14:54:28;;;;;;;3.80;2.28;;;;;;;;;;4999365;28;20025;-62